createdAt,value
2023-05-23T00:01:49.815Z,33.38
2023-05-23T00:04:20.347Z,30.58
2023-05-23T00:06:47.472Z,30.40
2023-05-23T00:09:15.005Z,28.13
2023-05-23T00:11:45.710Z,32.50
2023-05-23T00:14:14.371Z,29.65
2023-05-23T00:16:46.564Z,30.35
2023-05-23T00:19:17.145Z,31.02
2023-05-23T00:21:48.820Z,30.40
2023-05-23T00:24:19.113Z,32.17
2023-05-23T00:26:46.972Z,28.83
2023-05-23T00:29:18.537Z,30.40
2023-05-23T00:31:47.482Z,26.85
2023-05-23T00:34:18.027Z,26.20
2023-05-23T00:36:48.336Z,26.25
2023-05-23T00:39:20.381Z,24.25
2023-05-23T00:41:52.414Z,23.27
2023-05-23T00:44:20.809Z,23.40
2023-05-23T00:46:52.759Z,21.83
2023-05-23T00:49:20.687Z,22.95
2023-05-23T00:51:50.632Z,22.02
2023-05-23T00:54:33.768Z,19.33
2023-05-23T00:57:01.138Z,19.75
2023-05-23T00:59:28.353Z,19.60
2023-05-23T01:01:57.022Z,18.88
2023-05-23T01:04:28.652Z,17.15
2023-05-23T01:06:56.857Z,17.85
2023-05-23T01:09:28.976Z,16.65
2023-05-23T01:12:39.240Z,18.50
2023-05-23T01:15:12.741Z,16.60
2023-05-23T01:18:04.543Z,16.50
2023-05-23T01:20:37.695Z,17.15
2023-05-23T01:23:53.243Z,15.80
2023-05-23T01:26:32.699Z,16.50
2023-05-23T01:29:10.556Z,16.27
2023-05-23T01:31:41.983Z,16.85
2023-05-23T01:34:10.510Z,15.57
2023-05-23T01:36:42.622Z,16.40
2023-05-23T01:39:11.178Z,15.63
2023-05-23T01:41:38.074Z,17.17
2023-05-23T01:44:06.240Z,16.50
2023-05-23T01:46:34.481Z,17.73
2023-05-23T01:49:03.084Z,18.08
2023-05-23T01:51:30.813Z,18.92
2023-05-23T01:53:58.193Z,19.33
2023-05-23T01:56:25.352Z,19.35
2023-05-23T01:58:53.427Z,19.05
2023-05-23T02:01:21.480Z,21.05
2023-05-23T02:03:48.872Z,20.02
2023-05-23T02:06:16.008Z,20.20
2023-05-23T02:08:44.524Z,20.23
2023-05-23T02:11:11.598Z,21.23
2023-05-23T02:13:38.658Z,22.10
2023-05-23T02:16:05.892Z,19.75
2023-05-23T02:18:35.351Z,17.90
2023-05-23T02:21:02.859Z,20.02
2023-05-23T02:23:29.753Z,18.92
2023-05-23T02:25:59.461Z,16.58
2023-05-23T02:28:28.884Z,16.50
2023-05-23T02:30:56.082Z,17.10
2023-05-23T02:33:26.958Z,17.27
2023-05-23T02:35:55.761Z,17.17
2023-05-23T02:38:24.275Z,18.58
2023-05-23T02:40:52.026Z,18.45
2023-05-23T02:43:19.098Z,18.00
2023-05-23T02:45:46.196Z,18.08
2023-05-23T02:48:13.203Z,18.15
2023-05-23T02:50:40.377Z,20.85
2023-05-23T02:53:07.332Z,18.98
2023-05-23T02:55:34.251Z,18.15
2023-05-23T02:58:01.180Z,17.80
2023-05-23T03:00:28.261Z,15.18
2023-05-23T03:02:55.355Z,13.38
2023-05-23T03:05:22.699Z,14.15
2023-05-23T03:10:38.363Z,13.15
2023-05-23T03:13:06.191Z,12.75
2023-05-23T03:15:33.498Z,13.63
2023-05-23T03:18:01.553Z,11.68
2023-05-23T03:20:28.863Z,11.27
2023-05-23T03:22:56.116Z,10.70
2023-05-23T03:25:23.285Z,10.88
2023-05-23T03:27:50.398Z,10.18
2023-05-23T03:30:17.589Z,9.45
2023-05-23T03:32:44.744Z,9.35
2023-05-23T03:35:12.082Z,8.38
2023-05-23T03:37:39.298Z,7.20
2023-05-23T03:40:08.936Z,8.35
2023-05-23T03:42:37.505Z,8.18
2023-05-23T03:45:05.131Z,6.45
2023-05-23T03:47:32.314Z,8.07
2023-05-23T03:49:59.603Z,6.85
2023-05-23T03:52:26.958Z,7.30
2023-05-23T03:54:54.700Z,6.75
2023-05-23T03:57:22.105Z,6.65
2023-05-23T03:59:49.206Z,6.72
2023-05-23T04:02:16.388Z,6.20
2023-05-23T04:04:44.898Z,6.20
2023-05-23T04:07:12.046Z,6.72
2023-05-23T04:09:39.183Z,7.13
2023-05-23T04:12:09.208Z,6.53
2023-05-23T04:14:36.410Z,6.50
2023-05-23T04:17:03.595Z,6.90
2023-05-23T04:19:30.787Z,7.88
2023-05-23T04:21:57.810Z,7.80
2023-05-23T04:24:24.760Z,8.13
2023-05-23T04:26:51.724Z,7.35
2023-05-23T04:29:18.714Z,7.32
2023-05-23T04:31:46.279Z,7.43
2023-05-23T04:34:13.519Z,7.53
2023-05-23T04:36:40.650Z,8.85
2023-05-23T04:39:07.622Z,9.48
2023-05-23T04:41:35.203Z,9.82
2023-05-23T04:44:02.374Z,10.65
2023-05-23T04:46:29.275Z,10.45
2023-05-23T04:48:56.650Z,11.10
2023-05-23T04:51:23.652Z,12.02
2023-05-23T04:53:51.623Z,13.55
2023-05-23T04:56:22.024Z,13.90
2023-05-23T04:58:49.538Z,12.63
2023-05-23T05:01:16.577Z,14.10
2023-05-23T05:03:43.510Z,14.00
2023-05-23T05:06:11.526Z,14.68
2023-05-23T05:08:41.064Z,14.00
2023-05-23T05:11:09.471Z,13.93
2023-05-23T05:13:36.845Z,12.88
2023-05-23T05:16:04.148Z,12.10
2023-05-23T05:18:31.273Z,12.57
2023-05-23T05:20:58.738Z,12.90
2023-05-23T05:23:29.017Z,12.85
2023-05-23T05:25:56.834Z,12.57
2023-05-23T05:28:23.934Z,11.77
2023-05-23T05:30:54.733Z,11.73
2023-05-23T05:33:25.183Z,11.48
2023-05-23T05:35:52.442Z,11.02
2023-05-23T05:38:19.760Z,11.40
2023-05-23T05:40:46.771Z,10.98
2023-05-23T05:43:13.935Z,11.93
2023-05-23T05:45:41.177Z,11.55
2023-05-23T05:48:08.489Z,10.57
2023-05-23T05:50:35.518Z,10.77
2023-05-23T05:53:02.484Z,11.60
2023-05-23T05:55:29.666Z,10.82
2023-05-23T05:57:57.741Z,11.98
2023-05-23T06:00:25.470Z,10.55
2023-05-23T06:02:52.809Z,10.00
2023-05-23T06:05:19.976Z,10.23
2023-05-23T06:07:49.881Z,10.07
2023-05-23T06:10:16.950Z,10.57
2023-05-23T06:12:45.808Z,9.80
2023-05-23T06:15:14.924Z,10.57
2023-05-23T06:17:42.293Z,10.48
2023-05-23T06:20:09.532Z,11.30
2023-05-23T06:22:37.023Z,11.15
2023-05-23T06:25:04.564Z,8.68
2023-05-23T06:27:31.493Z,10.18
2023-05-23T06:29:58.398Z,10.52
2023-05-23T06:32:25.403Z,9.93
2023-05-23T06:34:52.352Z,9.77
2023-05-23T06:37:19.353Z,11.65
2023-05-23T06:39:46.221Z,10.13
2023-05-23T06:42:13.332Z,9.90
2023-05-23T06:44:41.497Z,10.13
2023-05-23T06:47:08.465Z,10.50
2023-05-23T06:49:35.333Z,10.45
2023-05-23T06:52:02.286Z,10.07
2023-05-23T06:54:29.210Z,8.88
2023-05-23T06:56:56.189Z,9.77
2023-05-23T06:59:23.213Z,9.75
2023-05-23T07:01:50.055Z,10.00
2023-05-23T07:04:17.007Z,9.38
2023-05-23T07:06:43.940Z,9.35
2023-05-23T07:09:13.331Z,9.85
2023-05-23T07:11:42.156Z,10.40
2023-05-23T07:14:09.313Z,10.07
2023-05-23T07:16:36.418Z,10.77
2023-05-23T07:19:03.689Z,10.00
2023-05-23T07:21:31.201Z,10.40
2023-05-23T07:23:58.294Z,10.07
2023-05-23T07:26:25.210Z,10.35
2023-05-23T07:28:52.256Z,10.38
2023-05-23T07:31:19.360Z,10.48
2023-05-23T07:33:46.451Z,10.52
2023-05-23T07:36:13.452Z,11.13
2023-05-23T07:38:40.534Z,10.07
2023-05-23T07:41:11.968Z,9.32
2023-05-23T07:43:39.836Z,10.13
2023-05-23T07:46:07.124Z,9.88
2023-05-23T07:48:34.045Z,10.52
2023-05-23T07:51:01.336Z,10.43
2023-05-23T07:53:28.275Z,10.07
2023-05-23T07:55:55.256Z,11.10
2023-05-23T07:58:23.592Z,10.95
2023-05-23T08:00:52.723Z,10.45
2023-05-23T08:03:20.247Z,9.55
2023-05-23T08:05:47.753Z,10.88
2023-05-23T08:08:14.714Z,10.80
2023-05-23T08:10:41.824Z,11.20
2023-05-23T08:13:12.070Z,10.73
2023-05-23T08:15:38.966Z,10.07
2023-05-23T08:18:06.596Z,11.35
2023-05-23T08:20:33.546Z,10.68
2023-05-23T08:23:01.913Z,10.25
2023-05-23T08:25:30.940Z,9.00
2023-05-23T08:27:58.959Z,9.88
2023-05-23T08:30:27.617Z,10.63
2023-05-23T08:32:56.377Z,11.43
2023-05-23T08:35:24.444Z,10.35
2023-05-23T08:37:52.627Z,10.57
2023-05-23T08:40:21.607Z,10.75
2023-05-23T08:42:51.990Z,11.35
2023-05-23T08:45:19.536Z,11.35
2023-05-23T08:47:47.684Z,10.25
2023-05-23T08:50:21.139Z,11.40
2023-05-23T08:52:56.969Z,10.20
2023-05-23T08:55:30.114Z,11.50
2023-05-23T08:58:01.972Z,11.03
2023-05-23T09:00:29.671Z,10.88
2023-05-23T09:02:57.635Z,10.75
2023-05-23T09:05:26.487Z,10.93
2023-05-23T09:07:54.027Z,9.98
2023-05-23T09:10:21.306Z,9.63
2023-05-23T09:12:48.879Z,8.90
2023-05-23T09:15:17.458Z,9.32
2023-05-23T09:17:45.826Z,9.43
2023-05-23T09:20:17.801Z,9.48
2023-05-23T09:22:50.288Z,10.20
2023-05-23T09:25:17.189Z,9.07
2023-05-23T09:27:47.509Z,9.25
2023-05-23T09:30:15.416Z,9.15
2023-05-23T09:32:42.773Z,8.15
2023-05-23T09:35:14.592Z,9.90
2023-05-23T09:37:49.181Z,9.63
2023-05-23T09:40:16.824Z,10.23
2023-05-23T09:42:45.526Z,10.48
2023-05-23T09:45:14.141Z,10.15
2023-05-23T09:47:52.081Z,10.07
2023-05-23T09:50:19.791Z,10.57
2023-05-23T09:52:47.629Z,9.55
2023-05-23T09:55:15.046Z,11.40
2023-05-23T09:57:43.835Z,12.25
2023-05-23T10:00:14.146Z,11.32
2023-05-23T10:03:00.909Z,11.52
2023-05-23T10:05:34.882Z,11.90
2023-05-23T10:10:34.190Z,12.52
2023-05-23T10:13:05.149Z,11.65
2023-05-23T10:15:38.456Z,9.30
2023-05-23T10:18:15.453Z,10.10
2023-05-23T10:20:47.840Z,9.65
2023-05-23T10:23:16.104Z,9.20
2023-05-23T10:25:44.942Z,9.35
2023-05-23T10:28:14.086Z,8.50
2023-05-23T10:30:41.778Z,8.45
2023-05-23T10:33:10.054Z,9.35
2023-05-23T10:35:47.998Z,8.75
2023-05-23T10:38:32.862Z,7.60
2023-05-23T10:41:27.337Z,8.30
2023-05-23T10:44:16.315Z,8.75
2023-05-23T10:46:57.835Z,10.20
2023-05-23T10:49:47.233Z,10.98
2023-05-23T10:52:17.186Z,12.68
2023-05-23T10:54:47.726Z,12.88
2023-05-23T10:57:20.246Z,12.00
2023-05-23T10:59:50.037Z,11.98
2023-05-23T11:02:19.591Z,12.15
2023-05-23T11:04:48.531Z,12.20
2023-05-23T11:07:33.091Z,11.05
2023-05-23T11:10:11.445Z,11.90
2023-05-23T11:12:43.066Z,12.70
2023-05-23T11:15:22.314Z,12.20
2023-05-23T11:17:57.254Z,13.68
2023-05-23T11:20:28.888Z,13.43
2023-05-23T11:23:00.713Z,15.85
2023-05-23T11:25:44.563Z,14.63
2023-05-23T11:28:13.234Z,15.07
2023-05-23T11:30:41.525Z,14.32
2023-05-23T11:33:16.881Z,15.65
2023-05-23T11:35:46.150Z,15.65
2023-05-23T11:38:14.995Z,15.05
2023-05-23T11:40:44.034Z,15.65
2023-05-23T11:43:14.242Z,18.15
2023-05-23T11:45:42.035Z,16.77
2023-05-23T11:48:10.373Z,18.13
2023-05-23T11:50:54.661Z,16.52
2023-05-23T11:55:57.976Z,17.50
2023-05-23T11:58:30.189Z,17.40
2023-05-23T12:01:02.836Z,17.08
2023-05-23T12:03:30.658Z,21.55
2023-05-23T12:05:58.824Z,22.83
2023-05-23T12:08:25.760Z,19.75
2023-05-23T12:10:54.090Z,16.10
2023-05-23T12:13:24.767Z,17.08
2023-05-23T12:15:59.312Z,17.67
2023-05-23T12:18:30.116Z,17.95
2023-05-23T12:21:06.420Z,15.77
2023-05-23T12:23:35.154Z,14.38
2023-05-23T12:26:07.467Z,13.75
2023-05-23T12:28:40.024Z,13.82
2023-05-23T12:31:17.829Z,14.02
2023-05-23T12:33:48.223Z,11.18
2023-05-23T12:36:21.302Z,8.75
2023-05-23T12:38:48.576Z,6.70
2023-05-23T12:41:20.264Z,5.97
2023-05-23T12:43:55.125Z,5.78
2023-05-23T12:46:23.702Z,6.03
2023-05-23T12:48:51.027Z,5.85
2023-05-23T12:51:18.109Z,5.95
2023-05-23T12:53:45.323Z,5.57
2023-05-23T12:56:12.808Z,6.03
2023-05-23T12:58:40.098Z,6.22
2023-05-23T13:01:07.099Z,5.68
2023-05-23T13:03:34.315Z,5.68
2023-05-23T13:06:01.446Z,5.60
2023-05-23T13:08:29.586Z,5.93
2023-05-23T13:10:57.346Z,5.85
2023-05-23T13:13:25.205Z,5.72
2023-05-23T13:15:52.268Z,6.03
2023-05-23T13:18:19.465Z,5.90
2023-05-23T13:20:47.567Z,5.55
2023-05-23T13:23:15.863Z,6.28
2023-05-23T13:25:43.243Z,6.10
2023-05-23T13:28:11.027Z,6.57
2023-05-23T13:30:37.926Z,6.15
2023-05-23T13:33:05.350Z,6.35
2023-05-23T13:35:32.357Z,6.10
2023-05-23T13:37:59.280Z,6.25
2023-05-23T13:40:26.719Z,6.50
2023-05-23T13:42:54.019Z,6.43
2023-05-23T13:45:22.845Z,5.68
2023-05-23T13:47:50.019Z,5.28
2023-05-23T13:50:17.857Z,5.40
2023-05-23T13:52:49.014Z,5.05
2023-05-23T13:55:17.753Z,5.88
2023-05-23T13:57:44.888Z,4.70
2023-05-23T14:00:12.601Z,5.68
2023-05-23T14:02:40.659Z,5.13
2023-05-23T14:05:08.353Z,4.80
2023-05-23T14:07:35.659Z,5.28
2023-05-23T14:10:02.874Z,5.28
2023-05-23T14:12:30.261Z,5.00
2023-05-23T14:14:57.255Z,4.78
2023-05-23T14:17:24.397Z,4.35
2023-05-23T14:19:51.603Z,4.55
2023-05-23T14:22:18.453Z,4.00
2023-05-23T14:24:45.443Z,3.92
2023-05-23T14:27:12.438Z,4.57
2023-05-23T14:29:40.380Z,4.68
2023-05-23T14:32:08.199Z,3.97
2023-05-23T14:34:35.322Z,4.00
2023-05-23T14:37:02.724Z,4.60
2023-05-23T14:39:29.653Z,4.38
2023-05-23T14:41:57.032Z,4.30
2023-05-23T14:44:23.980Z,3.88
2023-05-23T14:46:51.105Z,4.63
2023-05-23T14:49:18.124Z,4.68
2023-05-23T14:51:51.702Z,4.55
2023-05-23T14:54:19.374Z,4.95
2023-05-23T14:56:46.644Z,4.43
2023-05-23T14:59:13.646Z,3.90
2023-05-23T15:01:41.066Z,3.83
2023-05-23T15:04:09.765Z,4.03
2023-05-23T15:06:38.192Z,3.65
2023-05-23T15:09:05.637Z,3.78
2023-05-23T15:11:35.217Z,4.50
2023-05-23T15:14:02.353Z,4.20
2023-05-23T15:16:33.685Z,4.25
2023-05-23T15:19:00.838Z,4.65
2023-05-23T15:21:28.986Z,4.10
2023-05-23T15:23:56.096Z,4.60
2023-05-23T15:26:23.004Z,4.40
2023-05-23T15:28:50.116Z,5.00
2023-05-23T15:31:17.307Z,4.43
2023-05-23T15:33:45.805Z,5.00
2023-05-23T15:36:13.522Z,5.75
2023-05-23T15:38:40.979Z,4.70
2023-05-23T15:41:07.942Z,4.50
2023-05-23T15:43:37.784Z,4.22
2023-05-23T15:46:05.428Z,4.20
2023-05-23T15:48:32.672Z,5.40
2023-05-23T15:50:59.600Z,6.63
2023-05-23T15:53:26.534Z,6.75
2023-05-23T15:55:53.953Z,5.05
2023-05-23T15:58:22.269Z,4.93
2023-05-23T16:00:49.712Z,4.95
2023-05-23T16:03:16.978Z,4.47
2023-05-23T16:05:45.700Z,4.30
2023-05-23T16:08:12.853Z,5.00
2023-05-23T16:10:40.062Z,4.47
2023-05-23T16:13:09.352Z,4.45
2023-05-23T16:15:38.089Z,4.60
2023-05-23T16:18:05.301Z,4.85
2023-05-23T16:20:34.098Z,4.65
2023-05-23T16:23:01.574Z,4.38
2023-05-23T16:25:28.761Z,4.07
2023-05-23T16:27:55.887Z,4.38
2023-05-23T16:30:26.544Z,4.78
2023-05-23T16:32:56.592Z,4.78
2023-05-23T16:35:23.656Z,4.03
2023-05-23T16:37:51.098Z,4.20
2023-05-23T16:40:21.603Z,4.78
2023-05-23T16:42:48.689Z,4.45
2023-05-23T16:45:15.802Z,4.80
2023-05-23T16:47:42.810Z,4.25
2023-05-23T16:50:10.213Z,4.53
2023-05-23T16:52:37.443Z,4.50
2023-05-23T16:55:04.941Z,4.95
2023-05-23T16:57:31.864Z,5.07
2023-05-23T16:59:58.815Z,5.75
2023-05-23T17:02:25.849Z,5.15
2023-05-23T17:04:53.092Z,4.80
2023-05-23T17:07:21.286Z,5.10
2023-05-23T17:09:48.169Z,6.00
2023-05-23T17:12:15.103Z,5.90
2023-05-23T17:14:42.060Z,7.40
2023-05-23T17:17:09.346Z,7.22
2023-05-23T17:19:36.480Z,7.22
2023-05-23T17:22:06.048Z,7.60
2023-05-23T17:24:35.381Z,7.75
2023-05-23T17:27:04.777Z,7.57
2023-05-23T17:29:32.561Z,7.57
2023-05-23T17:31:59.646Z,7.65
2023-05-23T17:34:26.944Z,7.90
2023-05-23T17:36:53.984Z,8.35
2023-05-23T17:39:20.907Z,8.02
2023-05-23T17:41:47.832Z,7.47
2023-05-23T17:44:14.854Z,7.70
2023-05-23T17:46:42.551Z,7.88
2023-05-23T17:49:11.513Z,6.10
2023-05-23T17:51:41.925Z,6.10
2023-05-23T17:54:09.058Z,5.38
2023-05-23T17:56:36.970Z,5.97
2023-05-23T17:59:07.981Z,6.03
2023-05-23T18:01:35.297Z,9.02
2023-05-23T18:04:02.640Z,9.50
2023-05-23T18:06:29.559Z,6.60
2023-05-23T18:08:56.984Z,8.85
2023-05-23T18:11:24.728Z,12.80
2023-05-23T18:13:51.788Z,7.28
2023-05-23T18:16:18.777Z,6.40
2023-05-23T18:18:45.839Z,7.32
2023-05-23T18:21:12.792Z,6.63
2023-05-23T18:23:40.548Z,6.55
2023-05-23T18:26:07.587Z,6.15
2023-05-23T18:28:37.812Z,5.68
2023-05-23T18:31:05.103Z,6.38
2023-05-23T18:33:32.330Z,6.68
2023-05-23T18:35:59.503Z,6.53
2023-05-23T18:38:26.682Z,6.72
2023-05-23T18:40:53.860Z,6.93
2023-05-23T18:43:21.427Z,6.60
2023-05-23T18:45:48.969Z,6.95
2023-05-23T18:48:15.935Z,7.40
2023-05-23T18:50:43.366Z,6.10
2023-05-23T18:53:11.221Z,5.82
2023-05-23T18:55:40.550Z,6.30
2023-05-23T18:58:12.509Z,7.25
2023-05-23T19:00:39.525Z,6.90
2023-05-23T19:03:06.696Z,6.65
2023-05-23T19:05:35.393Z,7.20
2023-05-23T19:08:03.494Z,6.60
2023-05-23T19:10:30.519Z,7.45
2023-05-23T19:12:57.539Z,7.75
2023-05-23T19:15:24.749Z,6.53
2023-05-23T19:17:54.767Z,6.70
2023-05-23T19:20:22.386Z,7.55
2023-05-23T19:23:06.044Z,7.10
2023-05-23T19:25:34.600Z,6.72
2023-05-23T19:28:01.595Z,7.18
2023-05-23T19:30:28.457Z,7.03
2023-05-23T19:32:55.549Z,7.57
2023-05-23T19:35:25.131Z,6.40
2023-05-23T19:37:52.090Z,6.35
2023-05-23T19:40:21.685Z,7.05
2023-05-23T19:42:48.917Z,6.57
2023-05-23T19:45:17.701Z,6.70
2023-05-23T19:47:44.674Z,6.68
2023-05-23T19:50:15.472Z,5.82
2023-05-23T19:52:42.463Z,5.68
2023-05-23T19:55:10.291Z,4.68
2023-05-23T19:57:37.588Z,5.15
2023-05-23T20:00:08.814Z,4.25
2023-05-23T20:02:36.584Z,3.83
2023-05-23T20:05:03.645Z,5.15
2023-05-23T20:07:30.938Z,4.57
2023-05-23T20:09:57.866Z,4.50
2023-05-23T20:12:25.013Z,4.00
2023-05-23T20:14:51.980Z,3.90
2023-05-23T20:17:18.895Z,4.10
2023-05-23T20:19:45.811Z,3.30
2023-05-23T20:22:12.828Z,3.85
2023-05-23T20:24:39.759Z,3.95
2023-05-23T20:27:08.267Z,3.70
2023-05-23T20:29:35.235Z,3.95
2023-05-23T20:32:02.423Z,3.47
2023-05-23T20:34:29.463Z,4.47
2023-05-23T20:36:57.713Z,3.58
2023-05-23T20:39:25.780Z,3.85
2023-05-23T20:41:53.805Z,3.60
2023-05-23T20:44:20.809Z,3.85
2023-05-23T20:46:47.746Z,3.60
2023-05-23T20:49:15.882Z,3.85
2023-05-23T20:51:43.497Z,4.38
2023-05-23T20:54:10.515Z,3.97
2023-05-23T20:56:37.532Z,3.83
2023-05-23T20:59:04.560Z,3.45
2023-05-23T21:01:34.565Z,3.47
2023-05-23T21:04:01.819Z,4.13
2023-05-23T21:06:30.074Z,3.60
2023-05-23T21:08:57.328Z,3.72
2023-05-23T21:11:24.423Z,3.65
2023-05-23T21:13:51.493Z,3.45
2023-05-23T21:16:18.428Z,3.70
2023-05-23T21:18:45.372Z,3.45
2023-05-23T21:21:12.312Z,3.50
2023-05-23T21:23:39.239Z,3.58
2023-05-23T21:26:06.539Z,3.85
2023-05-23T21:28:33.391Z,4.13
2023-05-23T21:31:03.437Z,4.03
2023-05-23T21:33:30.540Z,4.03
2023-05-23T21:35:59.357Z,3.47
2023-05-23T21:38:31.103Z,4.15
2023-05-23T21:40:58.048Z,3.60
2023-05-23T21:43:25.034Z,3.53
2023-05-23T21:45:52.010Z,3.85
2023-05-23T21:48:18.920Z,3.70
2023-05-23T21:50:47.064Z,4.38
2023-05-23T21:53:14.027Z,4.20
2023-05-23T21:55:41.029Z,3.97
2023-05-23T21:58:07.937Z,4.05
2023-05-23T22:00:35.029Z,3.40
2023-05-23T22:03:02.206Z,3.70
2023-05-23T22:05:29.190Z,4.05
2023-05-23T22:07:56.474Z,3.83
2023-05-23T22:10:23.465Z,3.60
2023-05-23T22:12:50.699Z,3.83
2023-05-23T22:15:17.663Z,3.83
2023-05-23T22:17:46.992Z,4.13
2023-05-23T22:20:16.490Z,3.95
2023-05-23T22:22:43.650Z,3.80
2023-05-23T22:25:10.697Z,3.58
2023-05-23T22:27:37.757Z,4.65
2023-05-23T22:30:05.783Z,3.88
2023-05-23T22:32:32.794Z,3.67
2023-05-23T22:35:01.267Z,4.43
2023-05-23T22:37:28.276Z,3.88
2023-05-23T22:39:55.177Z,3.33
2023-05-23T22:42:22.277Z,3.53
2023-05-23T22:44:49.225Z,4.20
2023-05-23T22:47:16.203Z,3.53
2023-05-23T22:49:43.755Z,3.75
2023-05-23T22:52:11.158Z,4.18
2023-05-23T22:54:38.033Z,3.80
2023-05-23T22:57:05.177Z,4.53
2023-05-23T22:59:32.916Z,4.40
2023-05-23T23:01:59.936Z,3.85
2023-05-23T23:04:31.531Z,4.03
2023-05-23T23:06:59.428Z,4.13
2023-05-23T23:09:27.259Z,3.75
2023-05-23T23:11:54.955Z,3.65
2023-05-23T23:14:21.917Z,4.03
2023-05-23T23:16:49.977Z,3.70
2023-05-23T23:19:17.997Z,4.50
2023-05-23T23:21:45.215Z,4.05
2023-05-23T23:24:12.191Z,3.60
2023-05-23T23:26:39.198Z,3.65
2023-05-23T23:29:06.284Z,4.35
2023-05-23T23:31:33.803Z,4.15
2023-05-23T23:34:00.989Z,3.78
2023-05-23T23:36:27.960Z,4.10
2023-05-23T23:38:55.435Z,3.60
2023-05-23T23:41:23.237Z,4.00
2023-05-23T23:43:50.179Z,3.75
2023-05-23T23:46:18.947Z,4.05
2023-05-23T23:48:46.103Z,3.40
2023-05-23T23:51:13.047Z,3.83
2023-05-23T23:53:40.273Z,3.80
2023-05-23T23:56:07.242Z,2.88
2023-05-23T23:58:34.269Z,3.58
